Time;durP1;ratioP1;P1;durP2;ratioP2;P2;SDS_P1;SDS_P2;PMS_P1;PMS_P2;Temp;Humidity;BMP_temperature;BMP_pressure;BME280_temperature;BME280_humidity;BME280_pressure;Samples;Min_cycle;Max_cycle;Signal;HPM_P1;HPM_P2
2023/07/01 00:01:36;;;;;;;3.17;1.70;;;19.20;99.90;;;;;;5084297;28;20454;-79
2023/07/01 00:04:03;;;;;;;3.50;2.07;;;19.20;13.50;;;;;;5084077;28;20462;-80
2023/07/01 00:06:31;;;;;;;3.50;1.97;;;19.20;45.10;;;;;;5081025;28;20451;-78
2023/07/01 00:08:58;;;;;;;3.80;1.80;;;19.20;1.00;;;;;;5084602;28;20466;-79
2023/07/01 00:11:25;;;;;;;3.17;1.70;;;19.30;1.00;;;;;;5080558;28;20451;-79
2023/07/01 00:13:52;;;;;;;4.97;2.10;;;19.30;1.00;;;;;;5082496;28;20522;-80
2023/07/01 00:16:19;;;;;;;2.80;1.83;;;19.30;1.00;;;;;;5080987;28;20777;-80
2023/07/01 00:18:46;;;;;;;4.33;2.10;;;19.30;16.00;;;;;;5081781;28;20538;-80
2023/07/01 00:21:13;;;;;;;3.90;2.23;;;19.40;99.90;;;;;;5081980;28;20493;-78
2023/07/01 00:23:41;;;;;;;6.00;2.50;;;19.30;1.00;;;;;;5083282;28;20518;-78
2023/07/01 00:26:08;;;;;;;4.27;1.87;;;19.40;67.80;;;;;;5079652;28;20471;-79
2023/07/01 00:28:35;;;;;;;2.83;1.83;;;19.40;99.90;;;;;;5073540;28;20471;-80
2023/07/01 00:31:02;;;;;;;4.23;1.60;;;19.40;99.90;;;;;;5081339;28;20479;-78
2023/07/01 00:33:29;;;;;;;2.77;2.00;;;19.40;1.00;;;;;;5078529;28;20465;-79
2023/07/01 00:35:56;;;;;;;3.83;2.00;;;19.40;99.90;;;;;;5079405;28;20467;-80
2023/07/01 00:38:22;;;;;;;3.93;1.63;;;19.30;1.00;;;;;;5077636;28;20496;-79
2023/07/01 00:40:51;;;;;;;3.83;2.00;;;19.30;1.00;;;;;;5079593;28;20474;-79
2023/07/01 00:43:18;;;;;;;2.90;1.77;;;19.40;76.40;;;;;;5079036;28;20553;-80
2023/07/01 00:45:45;;;;;;;4.40;1.90;;;19.40;99.90;;;;;;5074633;28;20459;-79
2023/07/01 00:48:24;;;;;;;3.70;1.93;;;19.40;99.90;;;;;;5078188;28;20451;-78
2023/07/01 00:50:52;;;;;;;2.93;1.87;;;19.20;1.00;;;;;;5079210;28;20489;-78
2023/07/01 00:53:19;;;;;;;5.03;2.10;;;19.30;1.00;;;;;;5081351;28;20443;-80
2023/07/01 00:55:47;;;;;;;4.50;1.50;;;19.30;1.00;;;;;;5079297;28;20451;-79
2023/07/01 00:58:15;;;;;;;6.50;3.33;;;19.40;1.00;;;;;;5076239;28;20478;-78
2023/07/01 01:00:43;;;;;;;4.47;2.10;;;19.30;1.00;;;;;;5079123;28;20469;-79
2023/07/01 01:03:20;;;;;;;3.47;1.80;;;19.30;1.00;;;;;;5077967;28;20542;-77
2023/07/01 01:05:50;;;;;;;3.50;2.07;;;19.30;1.00;;;;;;5077034;28;20465;-78
2023/07/01 01:08:22;;;;;;;4.40;2.10;;;19.30;1.00;;;;;;5081069;28;20538;-77
2023/07/01 01:10:50;;;;;;;3.37;2.00;;;19.30;1.00;;;;;;5081466;28;20471;-78
2023/07/01 01:13:21;;;;;;;3.10;1.70;;;19.40;1.00;;;;;;5080729;28;20461;-78
2023/07/01 01:15:49;;;;;;;4.10;1.90;;;19.40;1.00;;;;;;5078611;28;20439;-78
2023/07/01 01:18:17;;;;;;;4.33;1.90;;;19.40;1.00;;;;;;5075014;28;20483;-77
2023/07/01 01:20:45;;;;;;;4.80;2.00;;;19.50;1.00;;;;;;5076809;28;20858;-78
2023/07/01 01:23:24;;;;;;;3.47;1.80;;;19.50;1.00;;;;;;5072460;28;20481;-77
2023/07/01 01:26:00;;;;;;;5.40;1.83;;;19.50;1.00;;;;;;5072726;28;20476;-77
2023/07/01 01:28:28;;;;;;;4.37;1.70;;;19.50;1.00;;;;;;5077821;28;20537;-77
2023/07/01 01:30:55;;;;;;;4.00;1.60;;;19.40;1.00;;;;;;5075321;28;20487;-77
2023/07/01 01:33:22;;;;;;;3.07;1.70;;;19.50;1.00;;;;;;5077421;28;20487;-78
2023/07/01 01:35:49;;;;;;;4.10;1.90;;;19.50;1.00;;;;;;5069215;28;20459;-79
2023/07/01 01:38:20;;;;;;;3.80;1.80;;;19.30;1.00;;;;;;5076503;28;20562;-77
2023/07/01 01:40:53;;;;;;;2.63;1.57;;;19.40;1.00;;;;;;5078461;28;20896;-78
2023/07/01 01:43:34;;;;;;;6.40;2.40;;;19.40;1.00;;;;;;5077679;28;20434;-78
2023/07/01 01:46:02;;;;;;;3.47;2.00;;;19.20;1.00;;;;;;5068754;28;20536;-77
2023/07/01 01:48:29;;;;;;;3.63;1.93;;;19.30;1.00;;;;;;5077266;28;20443;-78
2023/07/01 01:50:58;;;;;;;3.13;2.03;;;19.30;1.00;;;;;;5078441;28;20539;-78
2023/07/01 01:53:27;;;;;;;5.23;1.93;;;19.20;1.00;;;;;;5078922;28;20455;-77
2023/07/01 01:55:55;;;;;;;3.50;2.10;;;19.20;1.00;;;;;;5080254;28;20879;-77
2023/07/01 01:58:21;;;;;;;4.27;2.00;;;19.20;1.00;;;;;;5079906;28;21021;-78
2023/07/01 02:00:50;;;;;;;3.73;2.23;;;19.30;1.00;;;;;;5080494;28;20479;-77
2023/07/01 02:03:17;;;;;;;3.40;2.10;;;19.40;1.00;;;;;;5075536;28;20954;-78
2023/07/01 02:05:43;;;;;;;3.53;2.33;;;19.40;1.00;;;;;;5078571;28;20465;-78
2023/07/01 02:08:10;;;;;;;2.60;1.70;;;19.40;1.00;;;;;;5062658;28;20443;-78
2023/07/01 02:10:37;;;;;;;3.50;1.97;;;19.40;1.00;;;;;;5077204;28;20498;-79
2023/07/01 02:13:05;;;;;;;4.37;2.27;;;19.40;1.00;;;;;;5072658;28;20456;-79
2023/07/01 02:15:32;;;;;;;2.97;1.70;;;19.40;1.00;;;;;;5072134;28;20518;-78
2023/07/01 02:18:03;;;;;;;2.60;1.90;;;19.30;1.00;;;;;;5079621;28;20489;-78
2023/07/01 02:20:30;;;;;;;6.07;2.10;;;19.30;1.00;;;;;;5078851;28;20695;-78
2023/07/01 02:22:57;;;;;;;4.20;2.10;;;19.30;1.00;;;;;;5080337;28;21002;-79
2023/07/01 02:25:24;;;;;;;2.70;1.63;;;19.30;1.00;;;;;;5074204;28;20457;-77
2023/07/01 02:27:51;;;;;;;3.33;1.83;;;19.30;56.40;;;;;;5075103;28;20457;-78
2023/07/01 02:30:17;;;;;;;3.37;1.90;;;19.20;1.00;;;;;;5077670;28;20477;-79
2023/07/01 02:32:44;;;;;;;3.20;2.07;;;19.20;1.00;;;;;;5078459;28;20530;-79
2023/07/01 02:35:12;;;;;;;4.73;2.30;;;19.30;1.00;;;;;;5080227;28;20461;-79
2023/07/01 02:37:39;;;;;;;3.10;1.93;;;19.20;1.00;;;;;;5078775;28;20477;-78
2023/07/01 02:40:07;;;;;;;4.80;2.20;;;19.20;1.00;;;;;;5078121;28;20491;-78
2023/07/01 02:42:34;;;;;;;4.47;2.00;;;19.20;1.00;;;;;;5082108;28;20447;-78
2023/07/01 02:45:02;;;;;;;4.63;2.47;;;19.10;1.00;;;;;;5079068;28;20525;-79
2023/07/01 02:47:31;;;;;;;3.67;1.93;;;19.20;1.00;;;;;;5075405;28;20447;-78
2023/07/01 02:49:58;;;;;;;2.63;1.90;;;19.20;1.00;;;;;;5081480;28;20474;-79
2023/07/01 02:52:26;;;;;;;3.83;1.80;;;19.30;1.00;;;;;;5081383;28;20439;-78
2023/07/01 02:54:53;;;;;;;4.37;2.00;;;19.30;1.00;;;;;;5079743;28;20462;-78
2023/07/01 02:57:20;;;;;;;3.20;2.00;;;19.30;1.00;;;;;;5081499;28;20489;-78
2023/07/01 02:59:48;;;;;;;4.73;1.90;;;19.30;1.00;;;;;;5080486;28;20475;-77
2023/07/01 03:02:15;;;;;;;6.13;2.13;;;19.30;1.00;;;;;;5078391;28;20447;-78
2023/07/01 03:04:42;;;;;;;3.97;1.97;;;19.40;1.00;;;;;;5081465;28;20515;-78
2023/07/01 03:07:09;;;;;;;4.30;1.50;;;19.40;1.00;;;;;;5082359;28;20475;-78
2023/07/01 03:09:37;;;;;;;2.60;1.50;;;19.40;1.00;;;;;;5082974;28;20534;-78
2023/07/01 03:12:04;;;;;;;5.07;1.97;;;19.40;1.00;;;;;;5083372;28;20462;-79
2023/07/01 03:14:31;;;;;;;2.87;1.80;;;19.30;1.00;;;;;;5084262;28;20517;-78
2023/07/01 03:16:58;;;;;;;13.93;2.10;;;19.30;1.00;;;;;;5078610;28;20455;-79
2023/07/01 03:19:25;;;;;;;3.87;1.87;;;19.30;1.00;;;;;;5084187;28;20494;-77
2023/07/01 03:21:51;;;;;;;3.40;1.77;;;19.30;1.00;;;;;;5082763;28;20818;-79
2023/07/01 03:24:18;;;;;;;3.23;2.00;;;19.30;1.00;;;;;;5080384;28;20438;-78
2023/07/01 03:26:46;;;;;;;2.90;1.60;;;19.30;1.00;;;;;;5081800;28;20525;-78
2023/07/01 03:29:13;;;;;;;4.27;1.67;;;19.30;1.00;;;;;;5084369;28;20502;-79
2023/07/01 03:31:40;;;;;;;3.10;1.63;;;19.30;1.00;;;;;;5076545;28;20451;-78
2023/07/01 03:34:07;;;;;;;5.60;2.23;;;19.30;1.00;;;;;;5080976;28;20443;-78
2023/07/01 03:36:35;;;;;;;3.60;1.80;;;19.30;1.00;;;;;;5083053;28;20876;-79
2023/07/01 03:39:02;;;;;;;2.83;1.87;;;19.30;1.00;;;;;;5083470;28;20490;-80
2023/07/01 03:41:29;;;;;;;3.30;1.93;;;19.40;1.00;;;;;;5080621;28;20462;-78
2023/07/01 03:43:57;;;;;;;3.33;2.17;;;19.40;1.00;;;;;;5084452;28;20457;-79
2023/07/01 03:46:24;;;;;;;2.87;1.80;;;19.40;1.00;;;;;;5086160;28;20435;-79
2023/07/01 03:48:51;;;;;;;3.90;2.17;;;19.40;1.00;;;;;;5086273;28;20451;-78
2023/07/01 03:51:18;;;;;;;4.23;1.80;;;19.50;1.00;;;;;;5086198;28;20442;-79
2023/07/01 03:53:45;;;;;;;2.93;1.90;;;19.40;1.00;;;;;;5083088;28;20455;-78
2023/07/01 03:56:12;;;;;;;5.80;2.40;;;19.40;1.00;;;;;;5079051;28;20542;-78
2023/07/01 03:58:38;;;;;;;3.40;1.80;;;19.40;1.00;;;;;;5086988;28;20509;-79
2023/07/01 04:01:06;;;;;;;3.90;2.10;;;19.40;1.00;;;;;;5086250;28;20458;-79
2023/07/01 04:03:35;;;;;;;4.87;2.40;;;19.40;1.00;;;;;;5086307;28;20521;-78
2023/07/01 04:06:02;;;;;;;5.30;2.10;;;19.40;1.00;;;;;;5084837;28;20450;-79
2023/07/01 04:08:29;;;;;;;6.27;2.20;;;19.40;1.00;;;;;;5086751;28;20519;-79
2023/07/01 04:10:57;;;;;;;4.50;2.63;;;19.40;1.00;;;;;;5087582;28;20469;-79
2023/07/01 04:13:23;;;;;;;3.90;2.40;;;19.40;1.00;;;;;;5086429;28;20453;-80
2023/07/01 04:15:50;;;;;;;3.37;1.70;;;19.40;1.00;;;;;;5084991;28;21020;-78
2023/07/01 04:18:19;;;;;;;5.90;2.13;;;19.40;1.00;;;;;;5086710;28;20848;-79
2023/07/01 04:20:46;;;;;;;4.93;2.33;;;19.30;1.00;;;;;;5096834;22;20539;-81
2023/07/01 04:23:13;;;;;;;3.87;1.90;;;19.40;1.00;;;;;;5061477;28;20546;-80
2023/07/01 04:25:40;;;;;;;4.10;2.13;;;19.40;1.00;;;;;;5059285;28;20442;-80
2023/07/01 04:28:08;;;;;;;3.87;1.97;;;19.30;1.00;;;;;;5059002;28;20435;-79
2023/07/01 04:30:35;;;;;;;4.23;1.90;;;19.30;1.00;;;;;;5059771;28;20566;-81
2023/07/01 04:33:01;;;;;;;3.37;2.23;;;19.40;1.00;;;;;;5052529;28;20451;-79
2023/07/01 04:35:30;;;;;;;4.57;1.90;;;19.40;1.00;;;;;;5057397;28;20479;-79
2023/07/01 04:37:56;;;;;;;8.93;2.20;;;19.40;1.00;;;;;;5056820;28;20589;-80
2023/07/01 04:40:26;;;;;;;3.13;1.63;;;19.40;1.00;;;;;;5058683;28;21067;-79
2023/07/01 04:42:53;;;;;;;6.83;1.93;;;19.40;1.00;;;;;;5058539;28;20447;-77
2023/07/01 04:45:21;;;;;;;3.70;1.50;;;19.40;1.00;;;;;;5057781;28;20463;-77
2023/07/01 04:47:48;;;;;;;4.77;1.83;;;19.40;1.00;;;;;;5058585;28;20467;-80
2023/07/01 04:50:15;;;;;;;3.83;2.33;;;19.50;1.00;;;;;;5056769;28;20479;-79
2023/07/01 04:52:44;;;;;;;5.30;2.20;;;19.50;1.00;;;;;;5069011;28;20456;-79
2023/07/01 04:55:10;;;;;;;4.80;2.00;;;19.40;1.00;;;;;;5079598;28;20476;-79
2023/07/01 04:57:37;;;;;;;4.80;1.90;;;19.40;1.00;;;;;;5066560;28;20455;-80
2023/07/01 05:00:09;;;;;;;3.07;2.03;;;19.40;1.00;;;;;;5056330;28;20981;-79
2023/07/01 05:02:36;;;;;;;4.53;2.20;;;19.30;1.00;;;;;;5056085;28;20478;-80
2023/07/01 05:05:03;;;;;;;4.93;2.43;;;19.40;1.00;;;;;;5056294;28;20451;-78
2023/07/01 05:07:30;;;;;;;5.53;2.57;;;19.40;1.00;;;;;;5055837;28;20498;-83
2023/07/01 05:09:58;;;;;;;3.10;1.93;;;19.40;1.00;;;;;;5057022;28;20467;-80
2023/07/01 05:12:26;;;;;;;3.93;2.10;;;19.40;1.00;;;;;;5057428;28;20458;-80
2023/07/01 05:14:53;;;;;;;4.50;2.30;;;19.50;1.00;;;;;;5057035;28;20971;-80
2023/07/01 05:17:20;;;;;;;7.93;2.07;;;19.40;1.00;;;;;;5058892;28;20534;-81
2023/07/01 05:19:47;;;;;;;4.47;2.03;;;19.50;1.00;;;;;;5056985;28;20855;-80
2023/07/01 05:22:13;;;;;;;5.23;2.50;;;19.60;1.00;;;;;;5056429;28;20558;-79
2023/07/01 05:24:40;;;;;;;3.57;1.87;;;19.60;1.00;;;;;;5058047;28;20447;-81
2023/07/01 05:27:08;;;;;;;3.60;2.10;;;19.70;1.00;;;;;;5068596;28;20451;-83
2023/07/01 05:29:35;;;;;;;2.70;1.77;;;19.70;1.00;;;;;;5072023;28;20543;-81
2023/07/01 05:32:02;;;;;;;9.00;2.80;;;19.70;1.00;;;;;;5055610;28;20475;-80
2023/07/01 05:34:30;;;;;;;4.43;2.10;;;19.70;1.00;;;;;;5057330;28;20455;-80
2023/07/01 05:36:57;;;;;;;5.67;1.90;;;19.70;1.00;;;;;;5055734;28;20451;-79
2023/07/01 05:39:24;;;;;;;3.63;2.30;;;19.70;1.00;;;;;;5061768;28;20487;-82
2023/07/01 05:41:51;;;;;;;3.30;1.87;;;19.70;1.00;;;;;;5053927;28;20567;-82
2023/07/01 05:44:19;;;;;;;3.73;1.73;;;19.80;1.00;;;;;;5056220;28;20958;-81
2023/07/01 05:46:46;;;;;;;3.33;2.03;;;19.90;1.00;;;;;;5052432;28;20448;-82
2023/07/01 05:49:12;;;;;;;4.33;2.10;;;19.90;1.00;;;;;;5056353;28;20436;-83
2023/07/01 05:51:39;;;;;;;4.63;1.70;;;20.00;1.00;;;;;;5056021;28;20468;-82
2023/07/01 05:54:09;;;;;;;3.63;2.07;;;20.00;1.00;;;;;;5056725;28;20515;-79
2023/07/01 05:56:36;;;;;;;4.00;2.27;;;20.00;1.00;;;;;;5056283;28;20459;-82
2023/07/01 05:59:02;;;;;;;3.33;2.30;;;20.00;1.00;;;;;;5055171;28;20582;-81
2023/07/01 06:01:31;;;;;;;4.60;1.80;;;20.00;1.00;;;;;;5056351;28;20478;-80
2023/07/01 06:03:58;;;;;;;5.83;2.40;;;19.90;1.00;;;;;;5056259;28;20526;-81
2023/07/01 06:06:25;;;;;;;6.77;2.60;;;20.00;1.00;;;;;;5054599;28;20491;-80
2023/07/01 06:08:51;;;;;;;7.53;1.87;;;20.10;1.00;;;;;;5055406;28;20513;-79
2023/07/01 06:11:18;;;;;;;5.27;2.57;;;20.10;1.00;;;;;;5055663;28;20476;-80
2023/07/01 06:13:46;;;;;;;3.43;1.80;;;20.10;1.00;;;;;;5055898;28;21028;-80
2023/07/01 06:16:14;;;;;;;3.97;1.70;;;20.00;1.00;;;;;;5055841;28;20457;-81
2023/07/01 06:18:43;;;;;;;7.17;2.00;;;19.90;1.00;;;;;;5056540;28;20490;-82
2023/07/01 06:21:10;;;;;;;5.97;2.07;;;19.80;1.00;;;;;;5056824;28;21032;-79
2023/07/01 06:23:37;;;;;;;7.03;1.77;;;19.80;1.00;;;;;;5054239;28;20467;-82
2023/07/01 06:26:04;;;;;;;4.57;2.43;;;19.70;1.00;;;;;;5056214;28;20448;-79
2023/07/01 06:28:31;;;;;;;3.87;2.07;;;19.60;1.00;;;;;;5056529;28;20444;-79
2023/07/01 06:30:58;;;;;;;4.70;2.07;;;19.60;1.00;;;;;;5055388;28;20490;-82
2023/07/01 06:33:25;;;;;;;5.10;2.07;;;19.60;1.00;;;;;;5054890;28;20532;-81
2023/07/01 06:35:53;;;;;;;5.10;2.13;;;19.60;1.00;;;;;;5057416;28;20519;-81
2023/07/01 06:38:20;;;;;;;6.40;2.27;;;19.60;99.90;;;;;;5057179;28;20494;-80
2023/07/01 06:40:47;;;;;;;8.20;2.97;;;19.40;1.00;;;;;;5057619;28;20471;-82
2023/07/01 06:43:14;;;;;;;5.00;1.80;;;19.30;1.00;;;;;;5060481;28;20448;-82
2023/07/01 06:45:41;;;;;;;5.00;2.43;;;19.30;99.90;;;;;;5065543;28;20479;-79
2023/07/01 06:48:08;;;;;;;3.97;2.33;;;19.10;99.90;;;;;;5064196;28;20547;-78
2023/07/01 06:50:35;;;;;;;3.57;1.97;;;18.90;99.90;;;;;;5058285;28;21070;-81
2023/07/01 06:53:04;;;;;;;3.70;2.10;;;18.90;99.90;;;;;;5051568;28;20459;-80
2023/07/01 06:55:30;;;;;;;4.60;2.13;;;19.00;41.10;;;;;;5052028;28;20962;-81
2023/07/01 06:57:57;;;;;;;4.80;2.27;;;18.90;99.90;;;;;;5053770;28;20793;-81
2023/07/01 07:00:24;;;;;;;9.23;2.40;;;18.90;99.90;;;;;;5057107;28;20527;-82
2023/07/01 07:02:51;;;;;;;4.60;2.30;;;18.90;99.90;;;;;;5052329;28;20498;-80
2023/07/01 07:05:18;;;;;;;2.83;2.00;;;19.00;99.90;;;;;;5053870;28;20452;-81
2023/07/01 07:07:45;;;;;;;3.80;2.17;;;19.00;99.90;;;;;;5054386;28;20472;-79
2023/07/01 07:10:13;;;;;;;2.60;1.80;;;19.10;1.00;;;;;;5054405;28;20485;-80
2023/07/01 07:12:40;;;;;;;4.40;2.53;;;19.10;1.00;;;;;;5053316;28;20978;-79
2023/07/01 07:15:08;;;;;;;3.50;2.00;;;19.10;40.20;;;;;;5052350;28;20452;-81
2023/07/01 07:17:35;;;;;;;6.57;2.57;;;19.00;99.90;;;;;;5054859;28;20479;-81
2023/07/01 07:20:02;;;;;;;6.73;2.00;;;19.10;1.00;;;;;;5060899;28;20494;-80
2023/07/01 07:22:28;;;;;;;4.80;2.30;;;19.10;41.30;;;;;;5061929;28;20527;-80
2023/07/01 07:24:56;;;;;;;4.33;2.37;;;19.20;4.80;;;;;;5061968;28;20443;-81
2023/07/01 07:27:25;;;;;;;3.00;2.20;;;19.20;1.00;;;;;;5058371;28;20484;-79
2023/07/01 07:29:51;;;;;;;3.07;2.23;;;19.10;41.10;;;;;;5056801;28;20979;-77
2023/07/01 07:32:18;;;;;;;3.20;2.00;;;19.20;1.00;;;;;;5057990;28;20526;-78
2023/07/01 07:34:45;;;;;;;3.60;1.97;;;19.30;1.00;;;;;;5057442;28;20459;-79
2023/07/01 07:37:12;;;;;;;3.20;1.90;;;19.20;99.90;;;;;;5056660;28;20450;-80
2023/07/01 07:39:39;;;;;;;3.37;2.00;;;19.20;1.00;;;;;;5056601;28;20490;-78
2023/07/01 07:42:06;;;;;;;2.93;1.97;;;19.10;1.00;;;;;;5056521;28;20485;-78
2023/07/01 07:44:34;;;;;;;5.63;2.00;;;19.10;4.20;;;;;;5056323;28;20828;-78
2023/07/01 07:47:01;;;;;;;3.73;2.40;;;19.10;1.00;;;;;;5056048;28;20955;-79
2023/07/01 07:49:28;;;;;;;4.07;1.87;;;19.10;1.00;;;;;;5056215;28;20455;-79
2023/07/01 07:51:55;;;;;;;3.60;1.83;;;19.10;99.90;;;;;;5056257;28;20558;-79
2023/07/01 07:54:22;;;;;;;3.23;2.20;;;19.10;99.90;;;;;;5056497;28;20457;-78
2023/07/01 07:56:48;;;;;;;6.07;2.33;;;19.20;1.00;;;;;;5055953;28;20921;-80
2023/07/01 07:59:15;;;;;;;4.17;2.07;;;19.30;99.90;;;;;;5057233;28;20483;-77
2023/07/01 08:01:43;;;;;;;8.03;2.47;;;19.50;1.00;;;;;;5056114;28;20566;-78
2023/07/01 08:04:10;;;;;;;3.30;2.17;;;19.60;99.90;;;;;;5056207;28;20455;-78
2023/07/01 08:06:37;;;;;;;3.63;1.90;;;19.50;1.00;;;;;;5056366;28;20551;-79
2023/07/01 08:09:04;;;;;;;3.33;1.93;;;19.60;99.90;;;;;;5057052;28;20458;-78
2023/07/01 08:11:30;;;;;;;3.40;2.00;;;19.50;1.00;;;;;;5056223;28;20476;-78
2023/07/01 08:13:57;;;;;;;4.80;2.20;;;19.50;33.10;;;;;;5057069;28;20534;-79
2023/07/01 08:16:24;;;;;;;4.27;2.00;;;19.60;1.00;;;;;;5056119;28;20844;-78
2023/07/01 08:18:52;;;;;;;6.40;2.00;;;19.60;1.00;;;;;;5056370;28;20566;-79
2023/07/01 08:21:19;;;;;;;4.47;1.93;;;19.70;1.00;;;;;;5057525;28;20582;-77
2023/07/01 08:23:46;;;;;;;2.73;1.60;;;19.80;47.00;;;;;;5059520;28;20490;-78
2023/07/01 08:26:13;;;;;;;5.00;1.90;;;19.80;99.90;;;;;;5058092;28;20538;-80
2023/07/01 08:28:39;;;;;;;5.13;1.70;;;19.70;1.00;;;;;;5055373;28;20452;-77
2023/07/01 08:31:06;;;;;;;6.47;2.17;;;19.70;99.90;;;;;;5056152;28;20478;-78
2023/07/01 08:33:33;;;;;;;6.70;2.07;;;19.70;1.00;;;;;;5056065;28;20823;-81
2023/07/01 08:36:01;;;;;;;4.27;1.70;;;19.70;99.90;;;;;;5056321;28;21027;-79
2023/07/01 08:38:30;;;;;;;3.70;1.97;;;19.60;1.00;;;;;;5055263;28;20546;-79
2023/07/01 08:41:01;;;;;;;4.70;1.70;;;19.40;99.90;;;;;;5056610;28;20501;-80
2023/07/01 08:43:28;;;;;;;3.80;2.17;;;19.50;1.00;;;;;;5057388;28;20442;-79
2023/07/01 08:46:00;;;;;;;4.37;1.90;;;19.60;99.50;;;;;;5056846;28;20924;-78
2023/07/01 08:48:27;;;;;;;3.00;1.83;;;19.40;99.90;;;;;;5056434;28;20440;-78
2023/07/01 08:51:04;;;;;;;3.97;1.70;;;19.40;99.90;;;;;;5055889;28;20478;-78
2023/07/01 08:53:32;;;;;;;4.47;2.00;;;19.40;99.90;;;;;;5056130;28;20440;-78
2023/07/01 08:56:00;;;;;;;3.40;1.90;;;19.40;99.90;;;;;;5052253;28;20456;-80
2023/07/01 08:58:28;;;;;;;2.60;1.87;;;19.40;1.00;;;;;;5055933;28;20547;-78
2023/07/01 09:00:56;;;;;;;2.87;1.83;;;19.50;1.00;;;;;;5055921;28;20499;-78
2023/07/01 09:03:24;;;;;;;5.53;2.40;;;19.60;99.90;;;;;;5056041;28;20451;-80
2023/07/01 09:05:51;;;;;;;3.10;2.13;;;19.60;99.90;;;;;;5056389;28;20547;-79
2023/07/01 09:08:19;;;;;;;4.77;2.10;;;19.60;1.00;;;;;;5056279;28;20458;-80
2023/07/01 09:10:46;;;;;;;5.33;2.17;;;19.60;1.00;;;;;;5055628;28;20467;-80
2023/07/01 09:13:14;;;;;;;2.80;1.90;;;19.70;1.00;;;;;;5056154;28;20452;-78
2023/07/01 09:15:43;;;;;;;3.73;2.03;;;19.60;1.00;;;;;;5056193;28;20832;-79
2023/07/01 09:18:20;;;;;;;2.63;1.60;;;19.50;1.00;;;;;;5055978;28;20459;-79
2023/07/01 09:20:48;;;;;;;3.80;2.10;;;19.50;1.00;;;;;;5055100;28;20494;-79
2023/07/01 09:23:28;;;;;;;2.53;1.70;;;19.70;1.00;;;;;;5052566;28;20455;-79
2023/07/01 09:26:11;;;;;;;4.20;2.00;;;19.70;1.00;;;;;;5049155;28;20455;-78
2023/07/01 09:28:38;;;;;;;5.43;2.50;;;19.60;16.00;;;;;;5051864;28;20494;-79
2023/07/01 09:31:07;;;;;;;3.27;1.80;;;19.60;99.90;;;;;;5053517;28;20521;-79
2023/07/01 09:33:35;;;;;;;3.70;2.00;;;19.80;99.90;;;;;;5049205;28;20455;-78
2023/07/01 09:36:02;;;;;;;2.90;2.37;;;19.80;1.00;;;;;;5053267;28;20940;-78
2023/07/01 09:38:32;;;;;;;2.67;1.83;;;19.90;1.00;;;;;;5044215;28;20464;-79
2023/07/01 09:41:13;;;;;;;3.60;1.87;;;19.80;1.00;;;;;;5050790;28;20480;-80
2023/07/01 09:43:40;;;;;;;2.57;1.80;;;19.80;99.90;;;;;;5048881;28;20461;-78
2023/07/01 09:46:08;;;;;;;2.43;1.77;;;19.90;99.90;;;;;;5052462;28;20462;-80
2023/07/01 09:48:34;;;;;;;3.33;2.03;;;20.10;52.20;;;;;;5050728;28;21067;-80
2023/07/01 09:51:02;;;;;;;4.07;1.90;;;20.10;99.90;;;;;;5052368;28;20455;-80
2023/07/01 09:53:33;;;;;;;2.67;1.73;;;20.20;56.00;;;;;;5044298;28;20457;-80
2023/07/01 09:56:06;;;;;;;3.60;2.13;;;20.00;82.80;;;;;;5052388;28;20924;-82
2023/07/01 09:58:39;;;;;;;3.50;2.10;;;19.90;99.90;;;;;;5049486;28;20456;-83
2023/07/01 10:01:09;;;;;;;4.37;2.10;;;19.90;1.00;;;;;;5058385;28;20575;-81
2023/07/01 10:03:37;;;;;;;2.60;1.70;;;19.80;1.00;;;;;;5040642;28;20473;-82
2023/07/01 10:06:04;;;;;;;3.03;2.03;;;19.80;1.00;;;;;;5042963;28;20454;-80
2023/07/01 10:08:33;;;;;;;3.07;2.30;;;19.70;1.00;;;;;;5051025;28;20509;-79
2023/07/01 10:11:04;;;;;;;2.87;2.53;;;19.50;1.00;;;;;;5058391;28;20490;-79
2023/07/01 10:13:35;;;;;;;2.37;2.07;;;19.40;1.00;;;;;;5055464;28;20416;-80
2023/07/01 10:16:04;;;;;;;3.60;2.20;;;19.40;1.00;;;;;;5051873;28;20447;-79
2023/07/01 10:18:31;;;;;;;2.30;2.00;;;19.30;36.20;;;;;;5042212;28;20447;-79
2023/07/01 10:21:29;;;;;;;3.07;2.30;;;19.40;74.60;;;;;;5071510;22;20929;-81
2023/07/01 10:23:59;;;;;;;2.37;2.13;;;19.30;99.90;;;;;;5056361;28;20528;-81
2023/07/01 10:26:37;;;;;;;2.40;2.13;;;19.40;99.90;;;;;;5055902;28;20536;-81
2023/07/01 10:29:40;;;;;;;2.80;1.93;;;19.30;99.90;;;;;;5058883;28;20468;-80
2023/07/01 10:32:30;;;;;;;5.20;1.73;;;19.30;99.90;;;;;;5039861;28;20468;-80
2023/07/01 10:35:24;;;;;;;4.40;1.90;;;19.40;99.90;;;;;;5056155;28;20447;-80
2023/07/01 10:38:22;;;;;;;2.63;2.10;;;19.50;99.90;;;;;;5058335;28;20452;-80
2023/07/01 10:40:50;;;;;;;2.40;1.90;;;19.50;99.90;;;;;;5035100;28;20501;-80
2023/07/01 10:43:29;;;;;;;2.80;2.07;;;19.60;99.90;;;;;;5055166;28;20463;-80
2023/07/01 10:46:24;;;;;;;3.10;2.17;;;19.60;99.90;;;;;;5056143;28;20456;-80
2023/07/01 10:49:09;;;;;;;2.23;1.70;;;19.70;99.90;;;;;;5040651;28;20567;-80
2023/07/01 10:52:14;;;;;;;2.20;1.80;;;19.70;99.90;;;;;;5059729;28;20551;-81
2023/07/01 10:54:41;;;;;;;2.30;1.60;;;19.60;99.90;;;;;;5058857;28;20890;-79
2023/07/01 10:57:14;;;;;;;2.70;1.87;;;19.60;99.90;;;;;;5062829;28;20474;-79
2023/07/01 10:59:41;;;;;;;2.30;1.80;;;19.70;99.90;;;;;;5050748;28;20650;-80
2023/07/01 11:02:10;;;;;;;2.43;1.80;;;19.80;99.90;;;;;;5062398;28;20554;-80
2023/07/01 11:05:05;;;;;;;2.00;1.30;;;20.00;99.90;;;;;;5058298;28;20543;-80
2023/07/01 11:07:32;;;;;;;3.10;1.57;;;20.00;99.90;;;;;;5051034;28;20451;-80
2023/07/01 11:09:59;;;;;;;1.93;1.40;;;20.10;99.90;;;;;;5051149;28;20529;-80
2023/07/01 11:12:30;;;;;;;1.90;1.47;;;20.10;99.90;;;;;;5069788;28;20496;-80
2023/07/01 11:14:59;;;;;;;1.87;1.40;;;20.20;99.90;;;;;;5080294;28;20451;-77
2023/07/01 11:17:26;;;;;;;1.70;1.30;;;20.20;99.90;;;;;;5069147;28;20547;-79
2023/07/01 11:19:59;;;;;;;1.87;1.30;;;20.20;99.90;;;;;;5058190;28;20494;-78
2023/07/01 11:22:29;;;;;;;2.50;1.07;;;20.10;99.90;;;;;;5058030;28;20533;-78
2023/07/01 11:25:04;;;;;;;2.03;1.20;;;19.80;99.90;;;;;;5058500;28;20452;-80
2023/07/01 11:27:32;;;;;;;2.03;1.20;;;19.70;99.90;;;;;;5068203;28;20463;-80
2023/07/01 11:29:59;;;;;;;2.53;1.47;;;19.80;99.90;;;;;;5061670;28;20531;-81
2023/07/01 11:32:26;;;;;;;2.27;1.00;;;19.80;99.90;;;;;;5060367;28;20494;-80
2023/07/01 11:34:58;;;;;;;2.30;1.00;;;19.80;99.90;;;;;;5060781;28;20475;-80
2023/07/01 11:37:26;;;;;;;1.60;1.20;;;19.70;99.90;;;;;;5060687;28;20455;-81
2023/07/01 11:39:53;;;;;;;1.50;0.90;;;19.70;99.90;;;;;;5060705;28;20523;-79
2023/07/01 11:42:20;;;;;;;2.70;0.90;;;19.60;99.90;;;;;;5058924;28;20471;-80
2023/07/01 11:44:49;;;;;;;1.60;0.90;;;19.70;99.90;;;;;;5054783;28;20627;-80
2023/07/01 11:47:16;;;;;;;1.50;0.70;;;19.60;99.90;;;;;;5057317;28;21020;-79
2023/07/01 11:49:44;;;;;;;4.07;0.90;;;19.60;99.90;;;;;;5056491;28;20459;-80
2023/07/01 11:52:10;;;;;;;1.90;0.90;;;19.60;99.90;;;;;;5056412;28;20505;-79
2023/07/01 11:54:43;;;;;;;1.50;0.80;;;19.50;99.90;;;;;;5051115;28;20458;-79
2023/07/01 11:57:12;;;;;;;1.70;0.83;;;19.30;99.90;;;;;;5059853;28;20443;-79
2023/07/01 11:59:40;;;;;;;1.40;0.80;;;19.40;99.90;;;;;;5061831;28;20467;-79
2023/07/01 12:02:10;;;;;;;2.00;0.97;;;19.30;99.90;;;;;;5057402;28;20502;-80
2023/07/01 12:04:40;;;;;;;1.63;0.90;;;19.30;99.90;;;;;;5058781;28;20452;-80
2023/07/01 12:07:09;;;;;;;1.50;0.87;;;19.30;99.90;;;;;;5061359;28;20523;-80
2023/07/01 12:09:37;;;;;;;1.60;1.00;;;19.30;99.90;;;;;;5062002;28;20458;-80
2023/07/01 12:12:05;;;;;;;1.50;0.80;;;19.20;99.90;;;;;;5063483;28;20479;-79
2023/07/01 12:14:32;;;;;;;2.00;0.90;;;19.30;99.90;;;;;;5063598;28;20472;-80
2023/07/01 12:16:59;;;;;;;1.50;0.90;;;19.30;99.90;;;;;;5064750;28;20467;-80
2023/07/01 12:19:27;;;;;;;1.87;1.07;;;19.30;99.90;;;;;;5063212;28;20536;-79
2023/07/01 12:21:56;;;;;;;1.43;0.80;;;19.30;99.90;;;;;;5063028;28;20488;-80
2023/07/01 12:24:24;;;;;;;1.60;1.10;;;19.40;99.90;;;;;;5065541;28;20827;-80
2023/07/01 12:26:53;;;;;;;1.70;1.10;;;19.40;99.90;;;;;;5054375;28;20849;-79
2023/07/01 12:29:20;;;;;;;1.60;1.00;;;19.40;99.90;;;;;;5064492;28;20443;-79
2023/07/01 12:31:47;;;;;;;1.70;0.90;;;19.50;99.90;;;;;;5064815;28;21071;-80
2023/07/01 12:34:13;;;;;;;1.70;1.30;;;19.50;99.90;;;;;;5059880;28;20519;-80
2023/07/01 12:36:44;;;;;;;1.60;1.17;;;19.50;99.90;;;;;;5058040;28;20480;-81
2023/07/01 12:39:11;;;;;;;2.70;1.37;;;19.50;99.90;;;;;;5064945;28;20958;-81
2023/07/01 12:41:38;;;;;;;1.70;1.30;;;19.60;99.90;;;;;;5063072;28;20574;-80
2023/07/01 12:44:11;;;;;;;2.07;1.47;;;19.60;99.90;;;;;;5060600;28;20562;-80
2023/07/01 12:46:39;;;;;;;1.90;1.20;;;19.50;99.90;;;;;;5060890;28;20456;-81
2023/07/01 12:49:06;;;;;;;2.00;1.13;;;19.60;99.90;;;;;;5062627;28;20561;-81
2023/07/01 12:51:36;;;;;;;3.60;1.67;;;19.70;99.90;;;;;;5062623;28;20472;-81
2023/07/01 12:54:05;;;;;;;1.87;1.70;;;19.70;99.90;;;;;;5050548;28;20457;-80
2023/07/01 12:56:32;;;;;;;2.00;1.40;;;19.90;99.90;;;;;;5044281;28;20459;-81
2023/07/01 12:58:59;;;;;;;2.83;1.90;;;19.90;99.90;;;;;;5059017;28;20469;-81
2023/07/01 13:01:26;;;;;;;1.90;1.40;;;20.00;99.90;;;;;;5060207;28;20498;-81